This is the latest recevied weather packets stored in our database for station/object KQ4UPF. If no packets are shown the sender has not sent any weather packets the latest 10 day(s).
| Time | Temp. | Humidity | Pressure | Rain* | Wind** | Luminosity | Snow |
|---|---|---|---|---|---|---|---|
| 1777244868 | 23.33° C | 64% | 1012.9 hPa | 0 mm | - | 54 W/m² | - |
| 1777244563 | 23.89° C | 62% | 1013 hPa | 0 mm | - | 56 W/m² | - |
| 1777244260 | 24.44° C | 61% | 1012.9 hPa | 0 mm | - | 108 W/m² | - |
| 1777243958 | 24.44° C | 63% | 1012.8 hPa | 0 mm | - | 172 W/m² | - |
| 1777243655 | 24.44° C | 61% | 1012.7 hPa | 0 mm | - | 190 W/m² | - |
| 1777243352 | 25° C | 60% | 1012.4 hPa | 0 mm | - | 207 W/m² | - |
| 1777243047 | 25° C | 59% | 1012.6 hPa | 0 mm | - | 227 W/m² | - |
| 1777242744 | 25° C | 61% | 1012.6 hPa | 0 mm | - | 245 W/m² | - |
| 1777242441 | 25° C | 57% | 1012.7 hPa | 0 mm | - | 265 W/m² | - |
| 1777242137 | 25° C | 59% | 1012.6 hPa | 0 mm | - | 286 W/m² | - |
| 1777241834 | 26.11° C | 58% | 1012.4 hPa | 0 mm | - | 166 W/m² | - |
| 1777241532 | 26.67° C | 52% | 1012.4 hPa | 0 mm | - | 155 W/m² | - |
| 1777241230 | 26.67° C | 56% | 1012.5 hPa | 0 mm | - | 347 W/m² | - |
| 1777240927 | 26.67° C | 51% | 1012.5 hPa | 0 mm | - | 377 W/m² | - |
| 1777240624 | 27.22° C | 54% | 1012.5 hPa | 0 mm | - | 391 W/m² | - |
| 1777240322 | 27.22° C | 53% | 1012.5 hPa | 0 mm | - | 412 W/m² | - |
| 1777240019 | 27.22° C | 55% | 1012.6 hPa | 0 mm | - | 445 W/m² | - |
| 1777239716 | 27.78° C | 46% | 1012.4 hPa | 0 mm | - | 444 W/m² | - |
| 1777239413 | 27.22° C | 53% | 1012.3 hPa | 0 mm | - | 479 W/m² | - |
| 1777239110 | 27.22° C | 58% | 1012.4 hPa | 0 mm | - | 497 W/m² | - |
| 1777238807 | 27.78° C | 55% | 1012.3 hPa | 0 mm | - | 521 W/m² | - |
| 1777238504 | 27.78° C | 58% | 1012.4 hPa | 0 mm | - | 538 W/m² | - |
| 1777238200 | 27.78° C | 52% | 1012.3 hPa | 0 mm | - | 562 W/m² | - |
| 1777237898 | 27.78° C | 44% | 1012.4 hPa | 0 mm | - | 588 W/m² | - |
| 1777237593 | 28.33° C | 49% | 1012.4 hPa | 0 mm | - | 614 W/m² | - |
* Rain latest hour (hover to see other rain measurements)
** Current wind speed in m/s (hover to see current wind gust speed)